FMNM/MJN METAR and TAF weather

Enter ICAO airport designator
Station Type Date Time Source
FMNM METAR 2019/10/21 06:00 UTC NOAA

FMNM 210600Z 14010KT 110V180 CAVOK 32/17 Q1014 NOSIG


Station Type Date Time Source
FMNM Decoded METAR 2019/10/21 06:00 UTC NOAA

Majunga, Madagascar (FMNM) 15-40S 046-21E 18M
Oct 21, 2019 - 02:00 AM EDT / 2019.10.21 0600 UTC
Wind: from the SE (140 degrees) at 12 MPH (10 KT) (direction variable):0
Visibility: greater than 7 mile(s):0
Temperature: 89 F (32 C)
Dew Point: 62 F (17 C)
Relative Humidity: 40%
Pressure (altimeter): 29.94 in. Hg (1014 hPa)
ob: FMNM 210600Z 14010KT 110V180 CAVOK 32/17 Q1014 NOSIG
cycle: 6

Station Type Date Time Source
FMNM TAF 2019/10/21 06:03 UTC NOAA

TAF FMNM 210500Z 2106/2206 12008KT 9999 FEW023
BECMG 2108/2110 32010KT
BECMG 2122/2200 10004KT

Example: see airport list